Disclaimer

Please do not use the information listed here in-flight or in-navigation, as they are not provided to us by the airports but are provided by volunteers, so they might be outdated.

Search


Regions


Airport information page

Radio informations:
RADAR - 126.0 MHz
TAXIING - 120.45 MHz
Automatic Terminal Information Service (ATIS) - 125.875 MHz
Approach (APP) - 122.3 MHz

Airport informations:
Latitude: 55° 35' 29.51" N
Longitude: 037° 15' 41.35" E
Elevation: 685 feet - 209 meters
Operating hours: 24 hour operations
Operating agency: Civil government, landing fees and diplomatic clearance may be required
Timezone: UTC+3(+4DT) - Last Sunday in March to last Sunday in October
Fuel: N/A

Runway information:
02/20 - 10039 x 197 feet< - >3060 x 60 meters
06/24 - 9842 x 197 feet< - >3000 x 60 meters

Recent METARs:
UUWW 151130Z 15003G08MPS CAVOK 02/M09 Q1036 R24/250047 NOSIG
UUWW 151200Z 13002MPS CAVOK 02/M10 Q1035 R24/250047 NOSIG
UUWW 151230Z 13003MPS CAVOK 02/M10 Q1036 R24/250047 NOSIG

Airport on the map: